createdAt,value
2022-12-01T00:01:44.867Z,73.21
2022-12-01T00:04:11.447Z,73.98
2022-12-01T00:06:38.017Z,73.61
2022-12-01T00:09:23.203Z,73.62
2022-12-01T00:11:49.733Z,73.37
2022-12-01T00:14:16.488Z,73.94
2022-12-01T00:16:44.569Z,73.69
2022-12-01T00:19:11.264Z,74.03
2022-12-01T00:21:37.785Z,73.67
2022-12-01T00:24:04.407Z,73.69
2022-12-01T00:26:30.861Z,73.54
2022-12-01T00:28:59.465Z,73.56
2022-12-01T00:31:26.621Z,73.87
2022-12-01T00:33:53.751Z,73.04
2022-12-01T00:36:20.633Z,73.29
2022-12-01T00:38:47.551Z,72.99
2022-12-01T00:41:14.273Z,73.05
2022-12-01T00:43:40.778Z,72.79
2022-12-01T00:46:07.281Z,73.24
2022-12-01T00:48:33.958Z,73.85
2022-12-01T00:51:00.445Z,73.52
2022-12-01T00:53:27.133Z,73.75
2022-12-01T00:55:54.065Z,73.03
2022-12-01T00:58:21.857Z,73.40
2022-12-01T01:00:49.185Z,73.61
2022-12-01T01:03:15.695Z,73.76
2022-12-01T01:05:43.204Z,73.61
2022-12-01T01:08:11.535Z,73.45
2022-12-01T01:10:39.627Z,73.68
2022-12-01T01:13:06.369Z,73.51
2022-12-01T01:15:32.844Z,74.26
2022-12-01T01:17:59.406Z,74.12
2022-12-01T01:20:25.937Z,74.71
2022-12-01T01:22:52.363Z,74.20
2022-12-01T01:25:19.014Z,74.51
2022-12-01T01:27:45.491Z,74.26
2022-12-01T01:30:13.244Z,74.30
2022-12-01T01:32:39.555Z,74.80
2022-12-01T01:35:06.597Z,74.56
2022-12-01T01:37:33.053Z,73.94
2022-12-01T01:39:59.541Z,74.12
2022-12-01T01:42:26.078Z,73.85
2022-12-01T01:44:54.143Z,74.43
2022-12-01T01:47:26.653Z,74.55
2022-12-01T01:49:56.184Z,74.78
2022-12-01T01:52:23.705Z,73.59
2022-12-01T01:54:53.475Z,74.59
2022-12-01T01:57:25.639Z,74.14
2022-12-01T01:59:58.072Z,74.32
2022-12-01T02:02:25.664Z,74.43
2022-12-01T02:04:58.635Z,74.11
2022-12-01T02:07:25.443Z,74.29
2022-12-01T02:12:38.631Z,74.42
2022-12-01T02:15:25.070Z,74.26
2022-12-01T02:18:15.875Z,74.39
2022-12-01T02:20:58.949Z,74.47
2022-12-01T02:23:43.317Z,74.60
2022-12-01T02:26:28.457Z,74.63
2022-12-01T02:29:22.696Z,74.70
2022-12-01T02:31:52.074Z,74.64
2022-12-01T02:34:25.747Z,75.07
2022-12-01T02:37:15.662Z,74.98
2022-12-01T02:39:52.807Z,75.10
2022-12-01T02:42:54.199Z,75.74
2022-12-01T02:45:33.725Z,75.27
2022-12-01T02:48:02.583Z,75.25
2022-12-01T02:50:32.442Z,75.45
2022-12-01T02:53:01.226Z,75.29
2022-12-01T02:55:27.589Z,74.85
2022-12-01T02:57:53.952Z,75.00
2022-12-01T03:00:20.623Z,75.25
2022-12-01T03:02:58.855Z,75.08
2022-12-01T03:06:08.458Z,75.83
2022-12-01T03:08:55.605Z,76.00
2022-12-01T03:11:34.033Z,75.69
2022-12-01T03:14:24.855Z,75.29
2022-12-01T03:16:53.458Z,75.55
2022-12-01T03:19:41.696Z,75.59
2022-12-01T03:22:35.425Z,75.77
2022-12-01T03:25:04.054Z,75.71
2022-12-01T03:27:35.297Z,75.87
2022-12-01T03:30:03.699Z,75.66
2022-12-01T03:32:38.438Z,75.92
2022-12-01T03:35:12.613Z,75.80
2022-12-01T03:37:49.402Z,75.96
2022-12-01T03:40:19.858Z,75.98
2022-12-01T03:42:47.879Z,75.83
2022-12-01T03:45:19.860Z,76.16
2022-12-01T03:47:46.524Z,75.99
2022-12-01T03:50:14.363Z,75.95
2022-12-01T03:53:11.046Z,75.57
2022-12-01T03:55:42.404Z,76.71
2022-12-01T03:58:21.824Z,76.32
2022-12-01T04:00:51.546Z,76.53
2022-12-01T04:03:20.524Z,76.54
2022-12-01T04:05:46.884Z,76.85
2022-12-01T04:08:13.295Z,76.35
2022-12-01T04:10:39.746Z,76.47
2022-12-01T04:13:06.270Z,76.69
2022-12-01T04:15:32.595Z,76.33
2022-12-01T04:17:59.074Z,77.02
2022-12-01T04:20:25.449Z,76.60
2022-12-01T04:22:51.870Z,76.09
2022-12-01T04:25:18.309Z,76.28
2022-12-01T04:27:44.788Z,76.23
2022-12-01T04:30:12.407Z,76.83
2022-12-01T04:32:40.948Z,76.57
2022-12-01T04:35:09.372Z,76.54
2022-12-01T04:37:36.149Z,76.70
2022-12-01T04:40:02.670Z,76.87
2022-12-01T04:42:29.031Z,77.16
2022-12-01T04:44:55.409Z,76.93
2022-12-01T04:47:21.796Z,77.34
2022-12-01T04:49:49.290Z,77.43
2022-12-01T04:52:16.026Z,77.17
2022-12-01T04:54:42.443Z,76.95
2022-12-01T04:57:08.808Z,76.87
2022-12-01T04:59:35.243Z,77.16
2022-12-01T05:02:02.737Z,76.76
2022-12-01T05:04:31.120Z,77.31
2022-12-01T05:06:57.551Z,78.05
2022-12-01T05:09:23.886Z,77.48
2022-12-01T05:11:50.217Z,77.43
2022-12-01T05:14:16.650Z,77.42
2022-12-01T05:16:43.020Z,77.69
2022-12-01T05:19:28.233Z,77.80
2022-12-01T05:21:54.624Z,77.99
2022-12-01T05:24:22.240Z,77.90
2022-12-01T05:26:48.828Z,78.12
2022-12-01T05:29:15.320Z,78.11
2022-12-01T05:31:41.969Z,78.50
2022-12-01T05:34:09.137Z,78.10
2022-12-01T05:36:36.353Z,78.17
2022-12-01T05:39:03.419Z,78.79
2022-12-01T05:41:29.766Z,79.12
2022-12-01T05:43:56.201Z,77.92
2022-12-01T05:46:22.594Z,78.37
2022-12-01T05:48:49.109Z,78.42
2022-12-01T05:51:16.959Z,78.47
2022-12-01T05:53:43.614Z,78.74
2022-12-01T05:56:10.319Z,78.39
2022-12-01T05:58:36.865Z,78.94
2022-12-01T06:01:03.620Z,78.86
2022-12-01T06:03:29.966Z,78.32
2022-12-01T06:05:56.393Z,78.95
2022-12-01T06:08:23.019Z,78.71
2022-12-01T06:10:49.446Z,78.30
2022-12-01T06:13:15.880Z,77.97
2022-12-01T06:15:42.335Z,78.05
2022-12-01T06:18:08.852Z,78.63
2022-12-01T06:20:35.270Z,78.26
2022-12-01T06:23:01.652Z,78.43
2022-12-01T06:25:27.977Z,77.84
2022-12-01T06:27:58.374Z,78.57
2022-12-01T06:30:25.492Z,78.86
2022-12-01T06:32:51.842Z,78.28
2022-12-01T06:35:18.338Z,78.58
2022-12-01T06:37:44.815Z,78.98
2022-12-01T06:40:12.209Z,79.30
2022-12-01T06:42:38.693Z,78.83
2022-12-01T06:45:05.487Z,78.97
2022-12-01T06:47:31.848Z,79.41
2022-12-01T06:49:58.184Z,78.94
2022-12-01T06:52:24.555Z,79.03
2022-12-01T06:54:51.068Z,78.66
2022-12-01T06:57:17.778Z,79.01
2022-12-01T06:59:44.336Z,78.92
2022-12-01T07:02:11.861Z,78.83
2022-12-01T07:04:38.298Z,78.52
2022-12-01T07:07:05.391Z,78.67
2022-12-01T07:09:31.818Z,78.80
2022-12-01T07:11:58.201Z,78.85
2022-12-01T07:14:26.610Z,78.55
2022-12-01T07:16:53.479Z,78.78
2022-12-01T07:19:20.356Z,79.21
2022-12-01T07:21:46.788Z,78.33
2022-12-01T07:24:13.294Z,78.42
2022-12-01T07:26:40.996Z,78.02
2022-12-01T07:29:08.690Z,78.46
2022-12-01T07:31:35.849Z,80.90
2022-12-01T07:34:02.276Z,78.23
2022-12-01T07:36:28.666Z,78.55
2022-12-01T07:38:55.062Z,77.87
2022-12-01T07:41:21.562Z,78.25
2022-12-01T07:43:48.257Z,77.53
2022-12-01T07:46:22.291Z,77.95
2022-12-01T07:48:49.598Z,77.96
2022-12-01T07:51:16.809Z,76.77
2022-12-01T07:53:49.067Z,77.46
2022-12-01T07:56:16.250Z,76.88
2022-12-01T07:58:42.845Z,76.42
2022-12-01T08:01:14.683Z,76.36
2022-12-01T08:03:42.426Z,77.28
2022-12-01T08:06:09.989Z,76.67
2022-12-01T08:08:37.958Z,76.97
2022-12-01T08:11:08.017Z,76.49
2022-12-01T08:13:34.744Z,76.50
2022-12-01T08:16:05.750Z,76.14
2022-12-01T08:18:35.534Z,76.30
2022-12-01T08:21:02.462Z,76.52
2022-12-01T08:23:28.843Z,75.74
2022-12-01T08:25:55.538Z,75.87
2022-12-01T08:28:22.066Z,75.89
2022-12-01T08:30:48.636Z,75.23
2022-12-01T08:33:15.193Z,75.73
2022-12-01T08:35:41.581Z,74.39
2022-12-01T08:38:09.052Z,75.48
2022-12-01T08:40:35.457Z,74.68
2022-12-01T08:43:01.912Z,74.27
2022-12-01T08:45:28.346Z,73.74
2022-12-01T08:47:58.875Z,74.23
2022-12-01T08:50:26.756Z,74.98
2022-12-01T08:52:53.184Z,74.85
2022-12-01T08:55:20.581Z,74.19
2022-12-01T08:57:46.939Z,74.57
2022-12-01T09:00:14.182Z,73.94
2022-12-01T09:02:40.631Z,73.44
2022-12-01T09:05:07.400Z,73.74
2022-12-01T09:07:33.795Z,73.98
2022-12-01T09:10:00.164Z,73.67
2022-12-01T09:12:28.964Z,73.09
2022-12-01T09:14:55.371Z,73.35
2022-12-01T09:17:21.738Z,72.48
2022-12-01T09:19:48.603Z,72.43
2022-12-01T09:22:15.299Z,72.95
2022-12-01T09:24:41.628Z,72.14
2022-12-01T09:27:09.299Z,72.24
2022-12-01T09:29:35.886Z,71.31
2022-12-01T09:32:02.269Z,71.64
2022-12-01T09:34:29.278Z,71.52
2022-12-01T09:36:57.566Z,72.42
2022-12-01T09:39:24.694Z,69.99
2022-12-01T09:42:06.126Z,69.86
2022-12-01T09:44:53.181Z,70.84
2022-12-01T09:47:33.821Z,69.66
2022-12-01T09:50:10.621Z,69.52
2022-12-01T09:52:59.802Z,69.49
2022-12-01T09:55:28.537Z,70.96
2022-12-01T09:57:59.104Z,70.00
2022-12-01T10:00:29.979Z,70.05
2022-12-01T10:03:00.913Z,70.55
2022-12-01T10:05:36.570Z,70.14
2022-12-01T10:08:08.136Z,70.01
2022-12-01T10:10:39.583Z,70.82
2022-12-01T10:13:20.424Z,69.25
2022-12-01T10:16:08.389Z,69.66
2022-12-01T10:19:03.523Z,69.42
2022-12-01T10:21:44.315Z,69.18
2022-12-01T10:24:16.531Z,69.87
2022-12-01T10:27:14.546Z,69.05
2022-12-01T10:29:59.619Z,69.44
2022-12-01T10:32:54.160Z,69.03
2022-12-01T10:35:24.284Z,69.27
2022-12-01T10:38:01.457Z,69.05
2022-12-01T10:40:28.373Z,68.30
2022-12-01T10:42:55.622Z,68.36
2022-12-01T10:45:28.009Z,68.41
2022-12-01T10:48:20.649Z,67.51
2022-12-01T10:50:55.398Z,67.86
2022-12-01T10:53:33.654Z,67.47
2022-12-01T10:56:12.507Z,66.39
2022-12-01T10:58:44.195Z,66.95
2022-12-01T11:01:27.504Z,66.13
2022-12-01T11:04:02.263Z,66.61
2022-12-01T11:06:30.822Z,66.43
2022-12-01T11:09:00.881Z,67.16
2022-12-01T11:11:34.256Z,66.48
2022-12-01T11:14:04.771Z,66.94
2022-12-01T11:16:36.225Z,67.98
2022-12-01T11:19:26.819Z,65.84
2022-12-01T11:21:58.649Z,65.98
2022-12-01T11:24:51.628Z,67.14
2022-12-01T11:27:26.327Z,65.12
2022-12-01T11:29:56.905Z,65.42
2022-12-01T11:32:29.897Z,65.29
2022-12-01T11:35:05.625Z,65.43
2022-12-01T11:38:27.579Z,65.30
2022-12-01T11:40:53.613Z,66.56
2022-12-01T11:43:25.252Z,64.83
2022-12-01T11:45:53.113Z,64.46
2022-12-01T11:48:26.117Z,65.40
2022-12-01T11:51:16.097Z,64.42
2022-12-01T11:53:43.548Z,66.25
2022-12-01T11:56:12.649Z,65.33
2022-12-01T11:58:39.234Z,66.02
2022-12-01T12:04:21.562Z,63.75
2022-12-01T12:07:14.424Z,64.44
2022-12-01T12:10:05.215Z,63.22
2022-12-01T12:13:05.631Z,63.92
2022-12-01T12:15:56.666Z,62.67
2022-12-01T12:18:38.002Z,62.99
2022-12-01T12:21:30.147Z,62.58
2022-12-01T12:24:17.721Z,62.71
2022-12-01T12:27:01.606Z,63.45
2022-12-01T12:29:52.743Z,64.01
2022-12-01T12:32:47.587Z,63.57
2022-12-01T12:35:27.811Z,63.69
2022-12-01T12:38:32.494Z,61.63
2022-12-01T12:41:09.073Z,62.36
2022-12-01T12:44:00.287Z,62.78
2022-12-01T12:46:54.361Z,60.69
2022-12-01T12:49:37.428Z,61.43
2022-12-01T12:52:15.982Z,61.01
2022-12-01T12:54:50.452Z,59.98
2022-12-01T12:57:35.177Z,59.85
2022-12-01T13:00:05.274Z,60.29
2022-12-01T13:02:38.926Z,60.73
2022-12-01T13:05:05.504Z,60.14
2022-12-01T13:07:42.251Z,60.08
2022-12-01T13:10:25.338Z,58.91
2022-12-01T13:12:58.814Z,60.25
2022-12-01T13:15:27.220Z,60.83
2022-12-01T13:18:03.525Z,60.95
2022-12-01T13:20:33.163Z,61.61
2022-12-01T13:23:02.056Z,61.48
2022-12-01T13:25:39.433Z,59.95
2022-12-01T13:28:18.916Z,59.81
2022-12-01T13:31:03.988Z,60.13
2022-12-01T13:33:31.968Z,60.23
2022-12-01T13:36:30.020Z,60.84
2022-12-01T13:38:58.102Z,61.17
2022-12-01T13:41:38.503Z,62.35
2022-12-01T13:44:20.029Z,61.88
2022-12-01T13:46:46.663Z,62.46
2022-12-01T13:49:47.068Z,62.57
2022-12-01T13:52:22.837Z,62.34
2022-12-01T13:55:25.285Z,62.74
2022-12-01T13:57:57.397Z,63.17
2022-12-01T14:00:25.988Z,63.32
2022-12-01T14:03:17.348Z,63.01
2022-12-01T14:05:53.068Z,63.46
2022-12-01T14:08:44.162Z,63.27
2022-12-01T14:11:23.226Z,63.22
2022-12-01T14:14:25.957Z,63.71
2022-12-01T14:17:02.532Z,63.82
2022-12-01T14:19:36.266Z,64.03
2022-12-01T14:22:05.281Z,63.82
2022-12-01T14:24:35.553Z,64.27
2022-12-01T14:27:03.642Z,64.12
2022-12-01T14:29:33.240Z,64.22
2022-12-01T14:32:04.184Z,64.68
2022-12-01T14:34:34.166Z,64.77
2022-12-01T14:37:08.337Z,64.34
2022-12-01T14:39:48.116Z,64.93
2022-12-01T14:42:41.032Z,64.94
2022-12-01T14:45:11.644Z,64.39
2022-12-01T14:47:47.555Z,64.87
2022-12-01T14:50:24.842Z,64.63
2022-12-01T14:53:31.869Z,63.96
2022-12-01T14:56:10.631Z,64.81
2022-12-01T14:58:37.077Z,64.62
2022-12-01T15:01:12.667Z,64.47
2022-12-01T15:03:43.677Z,64.09
2022-12-01T15:06:15.494Z,64.89
2022-12-01T15:08:53.372Z,64.50
2022-12-01T15:11:30.191Z,63.96
2022-12-01T15:13:57.751Z,64.94
2022-12-01T15:16:28.564Z,64.10
2022-12-01T15:18:55.293Z,63.82
2022-12-01T15:21:28.151Z,63.51
2022-12-01T15:24:03.287Z,64.48
2022-12-01T15:26:45.096Z,63.95
2022-12-01T15:29:19.123Z,64.21
2022-12-01T15:31:48.397Z,64.53
2022-12-01T15:34:23.231Z,63.50
2022-12-01T15:36:51.277Z,64.38
2022-12-01T15:39:21.534Z,64.48
2022-12-01T15:41:53.696Z,64.34
2022-12-01T15:44:32.930Z,64.69
2022-12-01T15:46:59.538Z,64.78
2022-12-01T15:49:32.851Z,65.10
2022-12-01T15:52:10.038Z,64.27
2022-12-01T15:54:37.413Z,64.50
2022-12-01T15:57:05.397Z,65.32
2022-12-01T15:59:39.947Z,65.13
2022-12-01T16:02:20.379Z,64.57
2022-12-01T16:04:48.818Z,65.31
2022-12-01T16:07:15.612Z,65.65
2022-12-01T16:09:58.524Z,65.67
2022-12-01T16:12:26.914Z,65.06
2022-12-01T16:15:08.327Z,66.04
2022-12-01T16:17:47.544Z,65.15
2022-12-01T16:20:35.529Z,65.38
2022-12-01T16:23:20.028Z,65.83
2022-12-01T16:25:48.551Z,65.73
2022-12-01T16:28:42.203Z,65.99
2022-12-01T16:31:19.490Z,65.94
2022-12-01T16:33:46.093Z,66.00
2022-12-01T16:36:14.455Z,66.13
2022-12-01T16:38:41.107Z,66.57
2022-12-01T16:41:26.693Z,66.27
2022-12-01T16:44:20.204Z,65.95
2022-12-01T16:46:40.858Z,66.64
2022-12-01T16:49:07.971Z,66.20
2022-12-01T16:51:54.774Z,66.87
2022-12-01T16:54:22.830Z,66.83
2022-12-01T16:56:49.406Z,66.36
2022-12-01T16:59:15.819Z,67.31
2022-12-01T17:01:42.186Z,66.41
2022-12-01T17:04:08.612Z,67.49
2022-12-01T17:06:36.188Z,67.64
2022-12-01T17:09:02.538Z,67.16
2022-12-01T17:11:28.898Z,67.70
2022-12-01T17:13:55.214Z,68.28
2022-12-01T17:16:21.693Z,67.79
2022-12-01T17:18:48.143Z,67.65
2022-12-01T17:21:14.498Z,68.42
2022-12-01T17:23:40.921Z,68.36
2022-12-01T17:26:15.827Z,67.93
2022-12-01T17:28:42.513Z,68.16
2022-12-01T17:31:09.478Z,68.26
2022-12-01T17:33:36.276Z,67.71
2022-12-01T17:36:06.284Z,68.29
2022-12-01T17:38:37.741Z,67.72
2022-12-01T17:41:07.024Z,67.98
2022-12-01T17:43:38.087Z,68.86
2022-12-01T17:46:06.808Z,69.15
2022-12-01T17:48:44.874Z,69.32
2022-12-01T17:51:12.886Z,69.87
2022-12-01T17:53:40.230Z,69.83
2022-12-01T17:56:12.093Z,70.78
2022-12-01T17:58:39.236Z,69.79
2022-12-01T18:01:06.470Z,71.24
2022-12-01T18:03:32.810Z,69.82
2022-12-01T18:06:01.275Z,70.13
2022-12-01T18:08:29.730Z,71.76
2022-12-01T18:11:03.013Z,71.63
2022-12-01T18:13:29.566Z,72.11
2022-12-01T18:15:55.987Z,72.82
2022-12-01T18:18:22.391Z,73.88
2022-12-01T18:20:48.882Z,74.41
2022-12-01T18:23:15.231Z,74.46
2022-12-01T18:25:41.607Z,73.92
2022-12-01T18:28:10.876Z,75.61
2022-12-01T18:30:38.628Z,75.75
2022-12-01T18:33:06.498Z,75.42
2022-12-01T18:35:32.936Z,76.24
2022-12-01T18:37:59.282Z,76.76
2022-12-01T18:40:25.600Z,76.90
2022-12-01T18:42:52.047Z,76.13
2022-12-01T18:45:21.225Z,75.64
2022-12-01T18:47:48.040Z,75.40
2022-12-01T18:50:14.478Z,76.69
2022-12-01T18:52:40.842Z,76.11
2022-12-01T18:55:07.590Z,75.70
2022-12-01T18:57:33.991Z,76.24
2022-12-01T19:00:00.364Z,75.62
2022-12-01T19:02:26.922Z,76.39
2022-12-01T19:04:53.448Z,76.17
2022-12-01T19:07:20.703Z,77.48
2022-12-01T19:09:49.540Z,75.94
2022-12-01T19:12:16.178Z,76.86
2022-12-01T19:14:42.501Z,76.33
2022-12-01T19:17:08.882Z,77.19
2022-12-01T19:19:37.577Z,76.71
2022-12-01T19:22:04.154Z,76.14
2022-12-01T19:24:30.543Z,77.82
2022-12-01T19:26:56.892Z,76.70
2022-12-01T19:29:23.337Z,76.63
2022-12-01T19:31:49.883Z,75.92
2022-12-01T19:34:16.321Z,76.58
2022-12-01T19:36:42.709Z,76.53
2022-12-01T19:39:09.183Z,76.73
2022-12-01T19:41:35.577Z,76.25
2022-12-01T19:44:02.131Z,76.82
2022-12-01T19:46:28.761Z,77.64
2022-12-01T19:48:57.842Z,77.18
2022-12-01T19:51:26.924Z,76.95
2022-12-01T19:53:54.194Z,76.50
2022-12-01T19:56:21.833Z,77.30
2022-12-01T19:58:48.118Z,77.75
2022-12-01T20:01:16.539Z,76.65
2022-12-01T20:03:46.132Z,76.60
2022-12-01T20:06:20.987Z,75.88
2022-12-01T20:08:47.885Z,76.63
2022-12-01T20:11:14.958Z,76.64
2022-12-01T20:13:44.168Z,77.19
2022-12-01T20:16:20.576Z,76.85
2022-12-01T20:18:47.658Z,76.47
2022-12-01T20:21:17.296Z,76.27
2022-12-01T20:23:45.577Z,76.48
2022-12-01T20:26:12.344Z,76.05
2022-12-01T20:28:40.301Z,76.39
2022-12-01T20:31:12.909Z,76.00
2022-12-01T20:33:40.190Z,76.93
2022-12-01T20:36:07.885Z,76.45
2022-12-01T20:38:34.997Z,78.06
2022-12-01T20:41:01.361Z,76.71
2022-12-01T20:43:28.493Z,76.02
2022-12-01T20:45:55.144Z,77.32
2022-12-01T20:48:21.617Z,75.89
2022-12-01T20:50:48.132Z,77.21
2022-12-01T20:53:14.543Z,76.94
2022-12-01T20:55:40.985Z,76.46
2022-12-01T20:58:08.772Z,76.71
2022-12-01T21:00:40.560Z,76.96
2022-12-01T21:03:07.014Z,76.71
2022-12-01T21:05:33.633Z,76.02
2022-12-01T21:08:01.400Z,76.95
2022-12-01T21:10:28.605Z,76.49
2022-12-01T21:13:18.429Z,76.92
2022-12-01T21:16:00.019Z,76.79
2022-12-01T21:18:38.731Z,75.83
2022-12-01T21:21:20.118Z,76.72
2022-12-01T21:23:47.049Z,77.10
2022-12-01T21:26:17.266Z,76.81
2022-12-01T21:28:44.806Z,76.71
2022-12-01T21:31:16.521Z,76.93
2022-12-01T21:33:47.754Z,76.66
2022-12-01T21:36:19.697Z,76.13
2022-12-01T21:38:48.189Z,76.79
2022-12-01T21:41:25.778Z,77.24
2022-12-01T21:43:55.404Z,76.31
2022-12-01T21:46:21.885Z,76.35
2022-12-01T21:48:50.649Z,76.07
2022-12-01T21:51:25.413Z,76.66
2022-12-01T21:53:53.643Z,76.82
2022-12-01T21:56:28.999Z,76.42
2022-12-01T21:58:58.528Z,76.60
2022-12-01T22:01:31.112Z,76.15
2022-12-01T22:04:02.469Z,76.91
2022-12-01T22:06:40.501Z,77.14
2022-12-01T22:09:27.028Z,77.04
2022-12-01T22:11:54.798Z,77.03
2022-12-01T22:14:22.633Z,76.72
2022-12-01T22:16:58.189Z,77.20
2022-12-01T22:19:30.628Z,76.95
2022-12-01T22:22:15.712Z,76.77
2022-12-01T22:24:59.360Z,77.38
2022-12-01T22:27:28.497Z,76.10
2022-12-01T22:30:07.265Z,76.77
2022-12-01T22:32:40.039Z,76.32
2022-12-01T22:35:31.663Z,76.78
2022-12-01T22:38:05.568Z,76.52
2022-12-01T22:40:51.391Z,76.29
2022-12-01T22:43:17.860Z,76.26
2022-12-01T22:45:49.332Z,76.85
2022-12-01T22:48:29.642Z,76.34
2022-12-01T22:51:18.828Z,76.61
2022-12-01T22:53:46.089Z,75.91
2022-12-01T22:56:35.427Z,76.59
2022-12-01T22:59:12.846Z,76.28
2022-12-01T23:01:46.589Z,76.76
2022-12-01T23:04:21.818Z,76.54
2022-12-01T23:06:52.933Z,76.34
2022-12-01T23:09:23.211Z,76.54
2022-12-01T23:11:55.169Z,76.84
2022-12-01T23:14:23.361Z,76.93
2022-12-01T23:16:56.359Z,76.23
2022-12-01T23:19:22.698Z,76.91
2022-12-01T23:21:52.252Z,76.41
2022-12-01T23:24:18.704Z,76.37
2022-12-01T23:26:46.494Z,76.04
2022-12-01T23:29:12.907Z,76.60
2022-12-01T23:31:39.629Z,76.28
2022-12-01T23:34:15.350Z,76.17
2022-12-01T23:36:42.937Z,76.89
2022-12-01T23:39:14.723Z,76.23
2022-12-01T23:41:44.509Z,76.83
2022-12-01T23:44:40.038Z,75.46
2022-12-01T23:47:18.505Z,76.12
2022-12-01T23:49:46.416Z,76.06
2022-12-01T23:52:18.591Z,76.14
2022-12-01T23:54:45.631Z,76.34
2022-12-01T23:57:21.637Z,76.23
2022-12-01T23:59:54.986Z,75.97
